createdAt,value
2024-04-19T00:01:19.083Z,5.75
2024-04-19T00:03:49.435Z,3.35
2024-04-19T00:06:17.129Z,8.32
2024-04-19T00:08:50.457Z,1.67
2024-04-19T00:11:18.565Z,1.90
2024-04-19T00:13:49.285Z,5.88
2024-04-19T00:18:48.387Z,5.68
2024-04-19T00:21:16.656Z,5.50
2024-04-19T00:23:46.860Z,11.45
2024-04-19T00:26:17.706Z,3.63
2024-04-19T00:28:47.950Z,3.70
2024-04-19T00:31:15.680Z,6.10
2024-04-19T00:33:46.400Z,7.40
2024-04-19T00:36:14.124Z,5.30
2024-04-19T00:38:44.688Z,6.85
2024-04-19T00:41:12.225Z,5.63
2024-04-19T00:43:45.174Z,6.07
2024-04-19T00:46:13.107Z,6.25
2024-04-19T00:48:43.673Z,5.55
2024-04-19T00:51:11.615Z,4.10
2024-04-19T00:53:42.184Z,6.25
2024-04-19T00:56:10.760Z,4.30
2024-04-19T00:58:41.091Z,4.10
2024-04-19T01:01:12.872Z,6.85
2024-04-19T01:03:43.653Z,4.57
2024-04-19T01:06:11.898Z,4.55
2024-04-19T01:08:42.116Z,4.03
2024-04-19T01:11:09.782Z,4.45
2024-04-19T01:13:40.318Z,5.57
2024-04-19T01:16:08.113Z,6.50
2024-04-19T01:18:41.545Z,3.05
2024-04-19T01:21:11.166Z,1.98
2024-04-19T01:23:41.849Z,5.38
2024-04-19T01:26:12.165Z,4.38
2024-04-19T01:28:42.371Z,3.33
2024-04-19T01:31:09.989Z,3.00
2024-04-19T01:33:40.755Z,4.15
2024-04-19T01:36:09.212Z,2.72
2024-04-19T01:38:39.352Z,3.28
2024-04-19T01:41:07.124Z,8.70
2024-04-19T01:43:40.747Z,5.75
2024-04-19T01:46:08.318Z,4.68
2024-04-19T01:48:38.554Z,4.60
2024-04-19T01:51:09.226Z,2.60
2024-04-19T01:53:36.819Z,1.55
2024-04-19T01:56:07.530Z,4.50
2024-04-19T01:58:37.780Z,4.07
2024-04-19T02:01:08.423Z,1.90
2024-04-19T02:03:36.384Z,4.15
2024-04-19T02:06:11.224Z,5.00
2024-04-19T02:08:39.429Z,2.95
2024-04-19T02:11:10.277Z,4.22
2024-04-19T02:13:43.678Z,2.22
2024-04-19T02:16:11.326Z,2.22
2024-04-19T02:18:41.933Z,12.30
2024-04-19T02:21:09.959Z,2.92
2024-04-19T02:23:47.070Z,2.13
2024-04-19T02:26:14.642Z,4.90
2024-04-19T02:29:03.626Z,2.00
2024-04-19T02:31:33.902Z,6.82
2024-04-19T02:34:04.832Z,7.68
2024-04-19T02:36:35.049Z,5.22
2024-04-19T02:39:05.596Z,6.47
2024-04-19T02:41:33.250Z,4.88
2024-04-19T02:44:06.884Z,1.40
2024-04-19T02:46:37.622Z,3.58
2024-04-19T02:49:07.797Z,5.78
2024-04-19T02:51:38.461Z,2.67
2024-04-19T02:54:08.766Z,3.40
2024-04-19T02:56:39.138Z,6.03
2024-04-19T02:59:11.917Z,3.92
2024-04-19T03:01:43.300Z,3.15
2024-04-19T03:04:13.708Z,2.22
2024-04-19T03:06:44.247Z,2.08
2024-04-19T03:09:14.546Z,2.72
2024-04-19T03:11:44.932Z,4.82
2024-04-19T03:14:18.015Z,1.52
2024-04-19T03:16:48.300Z,2.80
2024-04-19T03:19:18.614Z,2.72
2024-04-19T03:21:49.332Z,0.82
2024-04-19T03:24:19.579Z,1.70
2024-04-19T03:26:50.480Z,1.88
2024-04-19T03:29:23.402Z,1.13
2024-04-19T03:31:53.689Z,1.85
2024-04-19T03:34:23.971Z,3.17
2024-04-19T03:36:54.334Z,5.45
2024-04-19T03:39:24.626Z,2.28
2024-04-19T03:41:54.796Z,3.13
2024-04-19T03:44:44.185Z,3.38
2024-04-19T03:47:14.524Z,2.42
2024-04-19T03:49:44.865Z,3.17
2024-04-19T03:52:15.142Z,0.70
2024-04-19T03:54:45.978Z,3.90
2024-04-19T03:57:16.727Z,0.90
2024-04-19T03:59:49.621Z,3.80
2024-04-19T04:02:20.073Z,2.13
2024-04-19T04:04:50.394Z,1.95
2024-04-19T04:07:20.924Z,1.45
2024-04-19T04:09:51.207Z,3.15
2024-04-19T04:12:21.805Z,2.35
2024-04-19T04:14:54.855Z,3.47
2024-04-19T04:17:25.465Z,2.17
2024-04-19T04:19:55.660Z,2.30
2024-04-19T04:22:26.333Z,2.47
2024-04-19T04:24:56.656Z,3.05
2024-04-19T04:27:27.194Z,3.63
2024-04-19T04:30:00.047Z,2.85
2024-04-19T04:32:30.744Z,3.63
2024-04-19T04:35:01.423Z,3.28
2024-04-19T04:37:35.881Z,2.53
2024-04-19T04:40:06.571Z,3.13
2024-04-19T04:42:39.714Z,5.07
2024-04-19T04:45:13.582Z,3.20
2024-04-19T04:47:43.877Z,4.00
2024-04-19T04:50:14.798Z,5.07
2024-04-19T04:52:45.110Z,5.75
2024-04-19T04:55:16.182Z,6.15
2024-04-19T04:57:46.716Z,5.68
2024-04-19T05:00:20.153Z,3.38
2024-04-19T05:02:50.701Z,5.55
2024-04-19T05:05:21.756Z,4.75
2024-04-19T05:07:52.022Z,5.43
2024-04-19T05:10:22.723Z,9.68
2024-04-19T05:12:52.967Z,6.60
2024-04-19T05:15:26.301Z,2.97
2024-04-19T05:17:56.799Z,5.40
2024-04-19T05:20:27.483Z,5.53
2024-04-19T05:22:57.704Z,5.85
2024-04-19T05:25:27.977Z,6.68
2024-04-19T05:27:58.299Z,5.32
2024-04-19T05:30:31.561Z,6.65
2024-04-19T05:33:02.235Z,5.93
2024-04-19T05:35:32.470Z,7.13
2024-04-19T05:38:03.334Z,4.55
2024-04-19T05:40:33.635Z,5.50
2024-04-19T05:43:04.523Z,5.53
2024-04-19T05:45:37.376Z,6.53
2024-04-19T05:48:08.261Z,3.65
2024-04-19T05:50:38.483Z,4.20
2024-04-19T05:53:08.985Z,2.40
2024-04-19T05:55:39.263Z,3.05
2024-04-19T05:58:09.637Z,3.17
2024-04-19T06:00:42.929Z,4.22
2024-04-19T06:03:13.611Z,6.03
2024-04-19T06:05:43.843Z,3.08
2024-04-19T06:08:14.258Z,3.42
2024-04-19T06:10:45.319Z,2.13
2024-04-19T06:13:15.649Z,0.80
2024-04-19T06:15:49.017Z,3.63
2024-04-19T06:18:19.759Z,2.55
2024-04-19T06:20:50.515Z,3.67
2024-04-19T06:23:20.843Z,5.55
2024-04-19T06:25:53.363Z,2.53
2024-04-19T06:28:24.016Z,4.80
2024-04-19T06:30:56.862Z,3.75
2024-04-19T06:33:27.654Z,2.13
2024-04-19T06:35:57.872Z,4.10
2024-04-19T06:38:28.380Z,2.25
2024-04-19T06:40:58.661Z,3.70
2024-04-19T06:43:29.212Z,5.40
2024-04-19T06:46:02.113Z,2.22
2024-04-19T06:48:32.480Z,4.50
2024-04-19T06:51:02.882Z,3.28
2024-04-19T06:53:33.315Z,3.35
2024-04-19T06:56:03.509Z,3.70
2024-04-19T06:58:33.856Z,0.88
2024-04-19T07:01:17.870Z,1.95
2024-04-19T07:03:49.174Z,2.83
2024-04-19T07:06:26.575Z,1.70
2024-04-19T07:09:01.719Z,2.53
2024-04-19T07:11:32.075Z,3.30
2024-04-19T07:14:03.023Z,2.30
2024-04-19T07:16:36.751Z,2.67
2024-04-19T07:19:08.276Z,1.48
2024-04-19T07:21:38.827Z,2.60
2024-04-19T07:24:09.845Z,2.08
2024-04-19T07:26:41.101Z,1.65
2024-04-19T07:29:12.248Z,1.63
2024-04-19T07:31:46.653Z,1.75
2024-04-19T07:34:17.051Z,1.48
2024-04-19T07:36:47.670Z,1.80
2024-04-19T07:39:17.840Z,3.60
2024-04-19T07:41:48.627Z,0.93
2024-04-19T07:44:18.944Z,2.13
2024-04-19T07:46:51.950Z,0.98
2024-04-19T07:49:22.280Z,1.63
2024-04-19T07:51:55.074Z,0.95
2024-04-19T07:54:25.321Z,1.95
2024-04-19T07:56:56.176Z,1.63
2024-04-19T07:59:26.587Z,1.05
2024-04-19T08:01:59.780Z,0.82
2024-04-19T08:04:30.080Z,1.08
2024-04-19T08:07:00.528Z,3.08
2024-04-19T08:09:31.465Z,1.10
2024-04-19T08:12:02.194Z,1.90
2024-04-19T08:14:32.369Z,0.82
2024-04-19T08:17:05.332Z,0.60
2024-04-19T08:19:36.036Z,0.52
2024-04-19T08:22:06.635Z,0.75
2024-04-19T08:24:37.149Z,1.27
2024-04-19T08:27:07.868Z,0.57
2024-04-19T08:29:38.328Z,0.90
2024-04-19T08:32:11.331Z,1.40
2024-04-19T08:34:41.996Z,4.57
2024-04-19T08:37:12.181Z,1.30
2024-04-19T08:39:45.729Z,0.77
2024-04-19T08:42:18.285Z,1.30
2024-04-19T08:44:51.365Z,1.05
2024-04-19T08:47:21.590Z,0.90
2024-04-19T08:49:52.134Z,0.75
2024-04-19T08:52:48.703Z,0.90
2024-04-19T08:55:13.546Z,0.38
2024-04-19T08:57:46.355Z,0.50
2024-04-19T09:00:19.044Z,0.55
2024-04-19T09:02:53.859Z,1.20
2024-04-19T09:05:24.617Z,0.73
2024-04-19T09:07:54.893Z,0.32
2024-04-19T09:10:25.248Z,0.73
2024-04-19T09:12:55.492Z,0.85
2024-04-19T09:15:25.810Z,1.65
2024-04-19T09:17:59.110Z,0.43
2024-04-19T09:20:29.418Z,0.80
2024-04-19T09:22:59.658Z,0.70
2024-04-19T09:25:30.876Z,0.57
2024-04-19T09:28:01.785Z,0.75
2024-04-19T09:30:31.994Z,0.52
2024-04-19T09:33:05.254Z,0.30
2024-04-19T09:35:37.178Z,0.93
2024-04-19T09:38:04.979Z,1.23
2024-04-19T09:40:37.769Z,0.75
2024-04-19T09:43:10.237Z,0.68
2024-04-19T09:45:45.661Z,1.30
2024-04-19T09:48:20.662Z,0.93
2024-04-19T09:50:51.500Z,0.90
2024-04-19T09:53:24.398Z,0.68
2024-04-19T09:55:57.715Z,1.50
2024-04-19T09:58:28.429Z,1.27
2024-04-19T10:00:59.781Z,2.08
2024-04-19T10:03:34.385Z,1.63
2024-04-19T10:06:07.232Z,1.20
2024-04-19T10:08:38.862Z,0.82
2024-04-19T10:11:09.841Z,1.08
2024-04-19T10:13:40.080Z,0.70
2024-04-19T10:16:10.567Z,0.75
2024-04-19T10:18:45.488Z,0.70
2024-04-19T10:21:15.862Z,1.23
2024-04-19T10:23:46.053Z,1.35
2024-04-19T10:26:16.231Z,2.17
2024-04-19T10:28:52.824Z,2.25
2024-04-19T10:31:23.251Z,1.58
2024-04-19T10:33:57.667Z,2.28
2024-04-19T10:36:32.651Z,3.58
2024-04-19T10:39:02.924Z,1.95
2024-04-19T10:41:33.141Z,1.33
2024-04-19T10:44:04.104Z,0.82
2024-04-19T10:46:34.350Z,2.35
2024-04-19T10:49:07.832Z,2.10
2024-04-19T10:51:38.309Z,2.17
2024-04-19T10:54:09.452Z,2.58
2024-04-19T10:56:40.802Z,2.78
2024-04-19T10:59:11.324Z,2.35
2024-04-19T11:01:43.485Z,2.10
2024-04-19T11:04:16.974Z,0.70
2024-04-19T11:06:47.384Z,1.73
2024-04-19T11:09:18.380Z,3.45
2024-04-19T11:11:48.822Z,1.20
2024-04-19T11:14:20.527Z,3.60
2024-04-19T11:16:50.975Z,1.73
2024-04-19T11:19:23.913Z,1.98
2024-04-19T11:21:55.385Z,2.72
2024-04-19T11:24:26.086Z,2.45
2024-04-19T11:26:56.434Z,1.15
2024-04-19T11:29:27.135Z,1.75
2024-04-19T11:31:57.354Z,1.08
2024-04-19T11:34:34.771Z,2.55
2024-04-19T11:37:05.677Z,1.05
2024-04-19T11:39:36.570Z,1.60
2024-04-19T11:42:08.037Z,2.40
2024-04-19T11:44:41.938Z,2.90
2024-04-19T11:47:12.300Z,1.00
2024-04-19T11:49:45.833Z,0.90
2024-04-19T11:52:16.087Z,1.67
2024-04-19T11:54:46.500Z,1.30
2024-04-19T11:57:16.819Z,2.90
2024-04-19T11:59:47.425Z,1.60
2024-04-19T12:02:17.919Z,1.85
2024-04-19T12:04:50.996Z,1.25
2024-04-19T12:07:22.705Z,1.05
2024-04-19T12:09:53.174Z,1.33
2024-04-19T12:15:44.045Z,1.13
2024-04-19T12:17:50.381Z,1.70
2024-04-19T12:20:35.722Z,0.95
2024-04-19T12:23:13.593Z,0.80
2024-04-19T12:25:46.376Z,0.82
2024-04-19T12:28:17.547Z,2.05
2024-04-19T12:30:48.057Z,0.82
2024-04-19T12:33:18.817Z,1.42
2024-04-19T12:35:50.022Z,2.45
2024-04-19T12:38:20.372Z,2.08
2024-04-19T12:40:52.020Z,3.17
2024-04-19T12:43:22.314Z,2.30
2024-04-19T12:45:54.031Z,1.55
2024-04-19T12:48:24.745Z,2.67
2024-04-19T12:50:58.440Z,1.45
2024-04-19T12:53:29.166Z,2.97
2024-04-19T12:55:59.376Z,2.47
2024-04-19T12:58:30.341Z,0.95
2024-04-19T13:01:04.974Z,1.83
2024-04-19T13:03:35.937Z,2.45
2024-04-19T13:06:09.302Z,2.00
2024-04-19T13:08:37.501Z,1.17
2024-04-19T13:11:08.039Z,1.80
2024-04-19T13:13:51.727Z,1.67
2024-04-19T13:16:19.414Z,1.95
2024-04-19T13:18:52.521Z,3.95
2024-04-19T13:21:28.981Z,3.65
2024-04-19T13:23:59.482Z,2.80
2024-04-19T13:26:29.892Z,3.35
2024-04-19T13:29:00.147Z,2.75
2024-04-19T13:31:30.767Z,2.42
2024-04-19T13:34:01.181Z,1.13
2024-04-19T13:36:34.153Z,1.80
2024-04-19T13:39:04.453Z,2.53
2024-04-19T13:41:34.828Z,2.15
2024-04-19T13:44:05.256Z,1.40
2024-04-19T13:46:35.608Z,3.28
2024-04-19T13:49:06.068Z,2.65
2024-04-19T13:51:39.176Z,2.80
2024-04-19T13:54:10.833Z,3.20
2024-04-19T13:56:41.180Z,1.95
2024-04-19T13:59:12.958Z,1.95
2024-04-19T14:01:43.369Z,2.92
2024-04-19T14:04:13.735Z,1.15
2024-04-19T14:06:46.848Z,5.20
2024-04-19T14:09:17.401Z,4.78
2024-04-19T14:11:47.735Z,2.25
2024-04-19T14:14:18.015Z,1.50
2024-04-19T14:16:48.715Z,2.42
2024-04-19T14:19:19.922Z,1.45
2024-04-19T14:21:53.038Z,0.60
2024-04-19T14:24:23.646Z,2.28
2024-04-19T14:26:54.360Z,2.83
2024-04-19T14:29:24.503Z,4.55
2024-04-19T14:31:54.885Z,1.38
2024-04-19T14:34:25.119Z,1.38
2024-04-19T14:36:58.453Z,2.00
2024-04-19T14:39:28.716Z,2.45
2024-04-19T14:41:59.268Z,2.45
2024-04-19T14:44:29.446Z,2.17
2024-04-19T14:47:00.035Z,3.55
2024-04-19T14:49:30.348Z,4.75
2024-04-19T14:52:12.414Z,1.40
2024-04-19T14:54:44.719Z,1.35
2024-04-19T14:57:16.020Z,1.60
2024-04-19T14:59:46.336Z,2.10
2024-04-19T15:02:17.315Z,1.23
2024-04-19T15:04:47.743Z,2.40
2024-04-19T15:07:21.422Z,1.10
2024-04-19T15:09:52.245Z,1.15
2024-04-19T15:12:22.814Z,1.75
2024-04-19T15:14:53.211Z,1.35
2024-04-19T15:17:23.368Z,1.10
2024-04-19T15:19:53.614Z,1.88
2024-04-19T15:22:27.317Z,1.35
2024-04-19T15:24:57.858Z,1.33
2024-04-19T15:27:28.114Z,0.93
2024-04-19T15:29:58.574Z,0.57
2024-04-19T15:32:29.376Z,0.73
2024-04-19T15:34:59.623Z,1.95
2024-04-19T15:37:32.502Z,0.80
2024-04-19T15:40:03.112Z,1.58
2024-04-19T15:42:33.530Z,2.70
2024-04-19T15:45:03.711Z,0.88
2024-04-19T15:47:34.538Z,1.30
2024-04-19T15:50:05.429Z,2.40
2024-04-19T15:52:38.427Z,2.40
2024-04-19T15:55:08.967Z,4.65
2024-04-19T15:57:42.765Z,1.42
2024-04-19T16:00:16.330Z,2.40
2024-04-19T16:02:47.328Z,1.00
2024-04-19T16:05:17.719Z,1.30
2024-04-19T16:07:52.405Z,2.40
2024-04-19T16:10:22.632Z,1.45
2024-04-19T16:12:52.856Z,1.52
2024-04-19T16:15:23.291Z,2.13
2024-04-19T16:17:53.598Z,1.23
2024-04-19T16:20:23.820Z,1.63
2024-04-19T16:22:56.806Z,3.08
2024-04-19T16:25:27.144Z,1.40
2024-04-19T16:27:57.921Z,0.60
2024-04-19T16:30:28.519Z,2.20
2024-04-19T16:32:59.219Z,2.20
2024-04-19T16:35:29.462Z,1.83
2024-04-19T16:38:02.756Z,2.45
2024-04-19T16:40:33.575Z,1.80
2024-04-19T16:43:04.043Z,3.42
2024-04-19T16:45:34.814Z,1.80
2024-04-19T16:48:05.010Z,3.78
2024-04-19T16:50:35.364Z,4.30
2024-04-19T16:53:08.909Z,4.97
2024-04-19T16:55:39.506Z,2.80
2024-04-19T16:58:09.730Z,7.20
2024-04-19T17:00:40.593Z,3.20
2024-04-19T17:03:11.081Z,3.53
2024-04-19T17:05:41.525Z,4.15
2024-04-19T17:08:15.013Z,2.92
2024-04-19T17:10:45.372Z,4.63
2024-04-19T17:13:15.731Z,4.85
2024-04-19T17:15:46.060Z,5.72
2024-04-19T17:18:16.415Z,5.72
2024-04-19T17:20:46.684Z,3.05
2024-04-19T17:23:19.724Z,4.07
2024-04-19T17:25:50.549Z,1.92
2024-04-19T17:28:20.719Z,5.30
2024-04-19T17:30:53.016Z,5.18
2024-04-19T17:33:23.618Z,4.15
2024-04-19T17:35:54.578Z,5.90
2024-04-19T17:38:27.421Z,3.97
2024-04-19T17:40:58.842Z,5.63
2024-04-19T17:43:29.091Z,3.85
2024-04-19T17:45:59.577Z,4.57
2024-04-19T17:48:30.477Z,4.47
2024-04-19T17:51:00.794Z,6.85
2024-04-19T17:53:33.766Z,7.60
2024-04-19T17:56:03.963Z,6.47
2024-04-19T17:58:34.356Z,7.47
2024-04-19T18:01:04.690Z,4.55
2024-04-19T18:03:35.327Z,3.90
2024-04-19T18:06:05.627Z,6.15
2024-04-19T18:08:38.826Z,4.25
2024-04-19T18:11:09.062Z,4.35
2024-04-19T18:13:39.534Z,4.38
2024-04-19T18:16:10.235Z,4.72
2024-04-19T18:18:40.724Z,2.78
2024-04-19T18:21:12.189Z,6.47
2024-04-19T18:23:45.076Z,3.63
2024-04-19T18:26:15.279Z,4.10
2024-04-19T18:28:46.094Z,4.82
2024-04-19T18:31:16.605Z,2.72
2024-04-19T18:33:48.840Z,6.85
2024-04-19T18:36:20.475Z,5.80
2024-04-19T18:38:53.394Z,5.22
2024-04-19T18:41:24.995Z,3.72
2024-04-19T18:43:56.005Z,3.53
2024-04-19T18:46:26.793Z,6.55
2024-04-19T18:48:57.067Z,3.47
2024-04-19T18:51:27.523Z,5.05
2024-04-19T18:54:00.506Z,4.78
2024-04-19T18:56:30.867Z,3.38
2024-04-19T18:59:01.085Z,5.82
2024-04-19T19:01:32.877Z,5.57
2024-04-19T19:04:03.485Z,4.57
2024-04-19T19:06:33.858Z,5.90
2024-04-19T19:09:08.515Z,2.35
2024-04-19T19:11:38.955Z,2.47
2024-04-19T19:14:09.300Z,4.28
2024-04-19T19:16:39.555Z,2.20
2024-04-19T19:19:07.717Z,4.13
2024-04-19T19:21:38.167Z,4.05
2024-04-19T19:24:11.510Z,2.75
2024-04-19T19:26:41.828Z,3.35
2024-04-19T19:29:18.152Z,4.15
2024-04-19T19:31:48.643Z,3.45
2024-04-19T19:34:19.661Z,3.53
2024-04-19T19:36:51.298Z,3.70
2024-04-19T19:39:24.421Z,1.02
2024-04-19T19:41:55.304Z,2.83
2024-04-19T19:44:27.000Z,2.90
2024-04-19T19:46:59.909Z,3.60
2024-04-19T19:49:30.145Z,0.82
2024-04-19T19:52:00.525Z,3.72
2024-04-19T19:54:33.760Z,2.20
2024-04-19T19:57:04.064Z,0.80
2024-04-19T19:59:50.309Z,3.10
2024-04-19T20:02:36.885Z,2.75
2024-04-19T20:05:23.474Z,1.35
2024-04-19T20:07:53.965Z,1.17
2024-04-19T20:10:26.901Z,0.80
2024-04-19T20:12:57.942Z,2.13
2024-04-19T20:15:29.813Z,1.25
2024-04-19T20:18:02.085Z,1.65
2024-04-19T20:20:32.581Z,1.65
2024-04-19T20:23:03.029Z,1.13
2024-04-19T20:25:36.155Z,0.60
2024-04-19T20:28:06.785Z,0.52
2024-04-19T20:30:36.971Z,1.38
2024-04-19T20:33:08.557Z,0.50
2024-04-19T20:35:38.950Z,0.50
2024-04-19T20:38:09.467Z,0.47
2024-04-19T20:40:42.511Z,0.63
2024-04-19T20:43:19.946Z,0.68
2024-04-19T20:45:51.296Z,0.52
2024-04-19T20:48:22.010Z,1.27
2024-04-19T20:50:52.301Z,0.50
2024-04-19T20:53:22.920Z,0.90
2024-04-19T20:55:55.710Z,0.57
2024-04-19T20:58:25.989Z,0.40
2024-04-19T21:00:56.574Z,0.88
2024-04-19T21:03:27.269Z,0.40
2024-04-19T21:05:57.826Z,0.50
2024-04-19T21:08:28.470Z,0.40
2024-04-19T21:11:01.396Z,0.50
2024-04-19T21:13:32.926Z,0.30
2024-04-19T21:16:13.752Z,0.40
2024-04-19T21:18:47.019Z,0.50
2024-04-19T21:21:18.136Z,0.52
2024-04-19T21:23:49.651Z,0.60
2024-04-19T21:26:23.906Z,0.88
2024-04-19T21:28:55.695Z,0.55
2024-04-19T21:31:26.457Z,0.85
2024-04-19T21:33:56.668Z,0.50
2024-04-19T21:36:30.876Z,0.80
2024-04-19T21:39:01.503Z,0.38
2024-04-19T21:41:34.792Z,1.02
2024-04-19T21:44:04.908Z,0.40
2024-04-19T21:46:35.615Z,0.65
2024-04-19T21:49:05.924Z,0.32
2024-04-19T21:51:36.684Z,0.32
2024-04-19T21:54:06.969Z,0.30
2024-04-19T21:56:40.073Z,0.30
2024-04-19T21:59:11.211Z,0.30
2024-04-19T22:01:39.836Z,1.48
2024-04-19T22:04:10.329Z,0.30
2024-04-19T22:06:40.889Z,1.15
2024-04-19T22:09:11.155Z,0.30
2024-04-19T22:11:44.094Z,0.43
2024-04-19T22:14:14.291Z,0.55
2024-04-19T22:16:44.554Z,0.60
2024-04-19T22:19:15.254Z,0.40
2024-04-19T22:21:45.479Z,0.40
2024-04-19T22:24:18.236Z,0.35
2024-04-19T22:26:52.889Z,0.30
2024-04-19T22:29:23.139Z,0.40
2024-04-19T22:31:55.574Z,0.40
2024-04-19T22:34:25.853Z,0.40
2024-04-19T22:36:56.634Z,0.40
2024-04-19T22:39:26.841Z,0.50
2024-04-19T22:42:00.319Z,0.50
2024-04-19T22:44:30.598Z,0.75
2024-04-19T22:47:00.866Z,0.50
2024-04-19T22:49:31.580Z,1.30
2024-04-19T22:52:01.853Z,0.75
2024-04-19T22:54:32.403Z,0.82
2024-04-19T22:57:05.798Z,1.30
2024-04-19T22:59:36.104Z,0.80
2024-04-19T23:02:06.972Z,1.30
2024-04-19T23:04:37.376Z,0.50
2024-04-19T23:07:08.345Z,0.98
2024-04-19T23:09:38.625Z,0.63
2024-04-19T23:12:11.545Z,0.90
2024-04-19T23:14:41.801Z,2.60
2024-04-19T23:17:12.126Z,0.98
2024-04-19T23:19:42.367Z,0.55
2024-04-19T23:22:12.728Z,0.50
2024-04-19T23:24:43.531Z,2.63
2024-04-19T23:27:16.374Z,2.90
2024-04-19T23:29:46.500Z,0.80
2024-04-19T23:32:16.755Z,0.52
2024-04-19T23:34:47.426Z,0.60
2024-04-19T23:37:17.722Z,1.98
2024-04-19T23:39:48.353Z,0.70
2024-04-19T23:42:21.138Z,2.65
2024-04-19T23:44:52.030Z,0.73
2024-04-19T23:47:22.317Z,0.73
2024-04-19T23:49:52.893Z,1.02
2024-04-19T23:52:23.234Z,0.90
2024-04-19T23:54:53.769Z,0.98
2024-04-19T23:57:26.860Z,1.27
2024-04-19T23:59:57.184Z,1.10
